Main page
METAR-TAF:

METAR-TAF

Airports :

Qeshm, Iran

Qeshm International Airport

latitude: 26-45-18N, longitude: 055-54-08E, elevation: 12 m

Current weather observation

The report was made 15 minutes ago, at 17:00 UTC
Wind 4 kt from the North
Temperature 36°C
Humidity 53%
Pressure 997 hPa
Visibility: 6000 m

METAR: OIKQ 231700Z 35004KT 6000 NSC 36/25 Q0997

Time: 21:45 (17:15 UTC)


TAF: missing

Weather observations and forecasts of more than 4000 airports (METAR and TAF reports).

The available stations are represented by yellow and red dots on the map.

Hover mouse over dot to see the name of the station.

Then click to see weather observations and forecasts.

To change the map : click on the green buttons with a black cross to zoom in, on the green button with a dash to zoom out, or on the green arrows for adjacent maps.


METAR-TAF: